createdAt,value
2022-12-13T00:02:21.508Z,98846.31
2022-12-13T00:05:25.337Z,98851.28
2022-12-13T00:08:29.216Z,98854.22
2022-12-13T00:11:34.872Z,98859.19
2022-12-13T00:14:38.990Z,98862.41
2022-12-13T00:17:42.919Z,98862.00
2022-12-13T00:20:46.771Z,98866.59
2022-12-13T00:23:51.347Z,98876.44
2022-12-13T00:26:57.857Z,98886.81
2022-12-13T00:30:01.716Z,98883.78
2022-12-13T00:33:06.772Z,98881.94
2022-12-13T00:36:11.432Z,98887.09
2022-12-13T00:39:16.848Z,98880.41
2022-12-13T00:42:22.216Z,98877.81
2022-12-13T00:45:26.156Z,98884.75
2022-12-13T00:48:29.910Z,98890.78
2022-12-13T00:51:35.734Z,98885.03
2022-12-13T00:54:39.597Z,98889.88
2022-12-13T00:57:44.869Z,98896.81
2022-12-13T01:00:48.696Z,98906.38
2022-12-13T01:03:53.214Z,98909.25
2022-12-13T01:06:57.091Z,98909.09
2022-12-13T01:10:01.040Z,98917.19
2022-12-13T01:13:06.429Z,98911.84
2022-12-13T01:16:11.770Z,98909.25
2022-12-13T01:19:16.340Z,98912.66
2022-12-13T01:22:20.458Z,98915.94
2022-12-13T01:25:24.338Z,98912.94
2022-12-13T01:28:30.397Z,98915.13
2022-12-13T01:31:34.858Z,98920.06
2022-12-13T01:34:38.712Z,98924.56
2022-12-13T01:37:43.396Z,98921.16
2022-12-13T01:40:49.149Z,98927.28
2022-12-13T01:43:57.577Z,98941.47
2022-12-13T01:47:02.237Z,98937.50
2022-12-13T01:50:10.810Z,98935.19
2022-12-13T01:53:19.027Z,98940.81
2022-12-13T01:56:27.156Z,98939.59
2022-12-13T01:59:32.757Z,98938.22
2022-12-13T02:02:37.636Z,98935.59
2022-12-13T02:05:45.470Z,98934.53
2022-12-13T02:08:49.025Z,98937.69
2022-12-13T02:11:53.337Z,98930.97
2022-12-13T02:15:01.110Z,98928.13
2022-12-13T02:18:20.196Z,98935.63
2022-12-13T02:21:30.831Z,98933.13
2022-12-13T02:24:55.307Z,98952.06
2022-12-13T02:28:30.536Z,98959.16
2022-12-13T02:31:49.510Z,98956.41
2022-12-13T02:34:58.454Z,98975.44
2022-12-13T02:38:10.797Z,98971.47
2022-12-13T02:41:19.698Z,98982.53
2022-12-13T02:44:27.650Z,98975.88
2022-12-13T02:47:34.990Z,98970.41
2022-12-13T02:50:40.476Z,98969.31
2022-12-13T02:53:45.818Z,98966.69
2022-12-13T02:56:56.276Z,98961.72
2022-12-13T03:00:05.318Z,98975.31
2022-12-13T03:03:21.497Z,98983.72
2022-12-13T03:06:36.637Z,98980.41
2022-12-13T03:09:59.929Z,98988.69
2022-12-13T03:13:25.649Z,98998.28
2022-12-13T03:16:38.572Z,98995.78
2022-12-13T03:19:44.290Z,98998.94
2022-12-13T03:22:47.904Z,98995.81
2022-12-13T03:25:54.816Z,98998.13
2022-12-13T03:28:59.190Z,99004.53
2022-12-13T03:32:06.351Z,98998.88
2022-12-13T03:35:21.944Z,99011.09
2022-12-13T03:38:27.252Z,99008.44
2022-12-13T03:41:32.990Z,98994.44
2022-12-13T03:44:36.930Z,98983.94
2022-12-13T03:47:40.850Z,98986.81
2022-12-13T03:50:46.035Z,98993.47
2022-12-13T03:53:49.828Z,98988.59
2022-12-13T03:56:53.790Z,98984.22
2022-12-13T03:59:57.796Z,98989.81
2022-12-13T04:03:01.713Z,98986.28
2022-12-13T04:06:08.185Z,98992.38
2022-12-13T04:09:12.135Z,98986.03
2022-12-13T04:12:33.425Z,98985.97
2022-12-13T04:15:37.617Z,98984.22
2022-12-13T04:18:41.576Z,98983.16
2022-12-13T04:21:46.809Z,98986.03
2022-12-13T04:24:50.590Z,98995.81
2022-12-13T04:27:54.656Z,99007.13
2022-12-13T04:30:58.577Z,99012.56
2022-12-13T04:34:02.411Z,99011.31
2022-12-13T04:37:08.289Z,99022.78
2022-12-13T04:40:13.224Z,99022.25
2022-12-13T04:43:25.650Z,99026.69
2022-12-13T04:46:29.239Z,99025.25
2022-12-13T04:49:34.182Z,99025.69
2022-12-13T04:52:39.886Z,99030.44
2022-12-13T04:55:43.671Z,99039.53
2022-12-13T04:58:47.735Z,99048.16
2022-12-13T05:01:51.540Z,99050.09
2022-12-13T05:04:55.282Z,99053.56
2022-12-13T05:08:01.504Z,99062.00
2022-12-13T05:11:05.650Z,99064.72
2022-12-13T05:14:09.556Z,99065.84
2022-12-13T05:17:13.549Z,99068.88
2022-12-13T05:20:17.539Z,99078.25
2022-12-13T05:23:24.436Z,99080.09
2022-12-13T05:26:28.495Z,99084.59
2022-12-13T05:29:32.456Z,99092.25
2022-12-13T05:32:42.574Z,99098.19
2022-12-13T05:35:46.749Z,99110.34
2022-12-13T05:38:52.016Z,99108.44
2022-12-13T05:42:01.749Z,99101.25
2022-12-13T05:45:07.410Z,99104.88
2022-12-13T05:48:11.577Z,99105.78
2022-12-13T05:51:15.293Z,99114.50
2022-12-13T05:54:20.589Z,99120.88
2022-12-13T05:57:24.730Z,99125.31
2022-12-13T06:00:30.894Z,99142.56
2022-12-13T06:03:35.113Z,99144.44
2022-12-13T06:06:39.098Z,99145.22
2022-12-13T06:09:44.516Z,99150.94
2022-12-13T06:12:48.463Z,99153.91
2022-12-13T06:15:52.636Z,99151.63
2022-12-13T06:19:05.509Z,99153.50
2022-12-13T06:22:09.443Z,99167.69
2022-12-13T06:25:30.957Z,99165.75
2022-12-13T06:28:35.815Z,99166.09
2022-12-13T06:31:39.655Z,99173.88
2022-12-13T06:34:43.457Z,99183.91
2022-12-13T06:37:47.344Z,99183.00
2022-12-13T06:40:52.777Z,99186.13
2022-12-13T06:43:56.558Z,99185.25
2022-12-13T06:47:11.897Z,99195.72
2022-12-13T06:50:16.857Z,99198.66
2022-12-13T06:53:20.989Z,99197.72
2022-12-13T06:56:26.277Z,99201.69
2022-12-13T06:59:30.011Z,99203.84
2022-12-13T07:02:34.197Z,99215.69
2022-12-13T07:05:39.629Z,99210.16
2022-12-13T07:08:52.077Z,99204.09
2022-12-13T07:11:57.392Z,99215.00
2022-12-13T07:15:01.335Z,99216.09
2022-12-13T07:18:05.604Z,99227.53
2022-12-13T07:21:21.932Z,99221.88
2022-12-13T07:24:26.416Z,99220.31
2022-12-13T07:27:31.769Z,99228.88
2022-12-13T07:30:41.048Z,99227.88
2022-12-13T07:33:45.769Z,99232.16
2022-12-13T07:36:51.656Z,99241.25
2022-12-13T07:40:01.105Z,99245.59
2022-12-13T07:43:08.621Z,99241.00
2022-12-13T07:46:13.048Z,99244.75
2022-12-13T07:49:17.096Z,99253.03
2022-12-13T07:52:21.030Z,99251.13
2022-12-13T07:55:33.600Z,99254.47
2022-12-13T07:58:42.440Z,99253.91
2022-12-13T08:01:46.442Z,99259.13
2022-12-13T08:04:54.368Z,99263.63
2022-12-13T08:07:59.225Z,99256.78
2022-12-13T08:11:03.955Z,99253.94
2022-12-13T08:14:10.372Z,99265.47
2022-12-13T08:17:14.411Z,99267.16
2022-12-13T08:20:22.144Z,99273.94
2022-12-13T08:23:26.598Z,99272.69
2022-12-13T08:26:30.519Z,99272.31
2022-12-13T08:29:36.790Z,99281.19
2022-12-13T08:32:40.885Z,99279.41
2022-12-13T08:35:45.229Z,99285.69
2022-12-13T08:38:49.637Z,99282.59
2022-12-13T08:41:53.440Z,99287.81
2022-12-13T08:44:58.679Z,99277.66
2022-12-13T08:48:03.479Z,99274.13
2022-12-13T08:51:09.429Z,99273.41
2022-12-13T08:54:13.456Z,99269.03
2022-12-13T08:57:37.481Z,99260.31
2022-12-13T09:00:43.211Z,99264.31
2022-12-13T09:03:47.369Z,99261.03
2022-12-13T09:06:51.290Z,99267.38
2022-12-13T09:09:55.341Z,99257.13
2022-12-13T09:13:01.282Z,99249.00
2022-12-13T09:16:14.216Z,99254.34
2022-12-13T09:19:27.122Z,99240.63
2022-12-13T09:22:33.634Z,99237.97
2022-12-13T09:25:38.893Z,99234.81
2022-12-13T09:28:43.512Z,99233.22
2022-12-13T09:31:53.049Z,99230.75
2022-12-13T09:34:57.419Z,99228.06
2022-12-13T09:38:01.350Z,99228.94
2022-12-13T09:41:19.324Z,99225.84
2022-12-13T09:44:32.293Z,99220.97
2022-12-13T09:47:46.987Z,99214.19
2022-12-13T09:51:17.272Z,99205.06
2022-12-13T09:54:20.969Z,99205.78
2022-12-13T09:57:30.947Z,99201.09
2022-12-13T10:00:37.679Z,99198.16
2022-12-13T10:03:48.336Z,99206.50
2022-12-13T10:06:55.097Z,99204.34
2022-12-13T10:10:02.636Z,99197.88
2022-12-13T10:13:16.458Z,99193.28
2022-12-13T10:16:27.836Z,99195.38
2022-12-13T10:19:44.855Z,99197.69
2022-12-13T10:23:15.129Z,99195.72
2022-12-13T10:26:24.184Z,99216.59
2022-12-13T10:29:28.896Z,99203.47
2022-12-13T10:32:37.311Z,99191.63
2022-12-13T10:35:43.390Z,99185.88
2022-12-13T10:38:48.089Z,99184.03
2022-12-13T10:42:04.915Z,99185.16
2022-12-13T10:45:23.815Z,99171.66
2022-12-13T10:48:38.992Z,99187.31
2022-12-13T10:51:45.056Z,99182.44
2022-12-13T10:54:51.335Z,99180.75
2022-12-13T10:57:57.639Z,99159.41
2022-12-13T11:01:10.963Z,99155.97
2022-12-13T11:04:28.183Z,99144.97
2022-12-13T11:07:34.936Z,99150.97
2022-12-13T11:10:39.864Z,99145.53
2022-12-13T11:13:47.536Z,99144.84
2022-12-13T11:16:53.798Z,99145.28
2022-12-13T11:19:59.709Z,99136.69
2022-12-13T11:23:08.457Z,99138.47
2022-12-13T11:26:23.963Z,99145.41
2022-12-13T11:29:52.821Z,99133.00
2022-12-13T11:33:16.237Z,99146.75
2022-12-13T11:36:33.476Z,99133.84
2022-12-13T11:39:43.409Z,99140.09
2022-12-13T11:42:53.497Z,99133.50
2022-12-13T11:46:01.707Z,99140.22
2022-12-13T11:49:11.878Z,99135.81
2022-12-13T11:52:20.576Z,99136.03
2022-12-13T11:55:36.276Z,99141.22
2022-12-13T11:59:03.084Z,99136.78
2022-12-13T12:02:16.756Z,99145.47
2022-12-13T12:05:29.811Z,99147.56
2022-12-13T12:08:40.976Z,99146.03
2022-12-13T12:11:52.996Z,99139.72
2022-12-13T12:15:05.648Z,99136.16
2022-12-13T12:18:19.636Z,99126.09
2022-12-13T12:22:04.945Z,99131.19
2022-12-13T12:25:15.510Z,99129.13
2022-12-13T12:28:34.709Z,99125.38
2022-12-13T12:31:50.911Z,99124.69
2022-12-13T12:35:06.916Z,99132.28
2022-12-13T12:38:28.742Z,99127.19
2022-12-13T12:41:45.530Z,99121.28
2022-12-13T12:45:05.516Z,99140.25
2022-12-13T12:51:56.933Z,99132.47
2022-12-13T12:55:12.263Z,99123.16
2022-12-13T12:58:25.454Z,99120.97
2022-12-13T13:01:47.001Z,99137.00
2022-12-13T13:04:56.696Z,99153.31
2022-12-13T13:08:07.191Z,99160.13
2022-12-13T13:11:24.831Z,99166.75
2022-12-13T13:14:36.729Z,99176.00
2022-12-13T13:17:48.855Z,99162.34
2022-12-13T13:21:33.392Z,99164.72
2022-12-13T13:24:37.249Z,99162.91
2022-12-13T13:27:44.276Z,99178.63
2022-12-13T13:31:06.143Z,99202.31
2022-12-13T13:34:25.813Z,99216.09
2022-12-13T13:37:47.594Z,99224.06
2022-12-13T13:40:51.484Z,99233.63
2022-12-13T13:43:55.516Z,99230.22
2022-12-13T13:47:15.494Z,99240.56
2022-12-13T13:50:54.628Z,99241.84
2022-12-13T13:54:50.271Z,99260.91
2022-12-13T13:58:31.396Z,99268.75
2022-12-13T14:02:17.366Z,99283.63
2022-12-13T14:05:54.112Z,99265.06
2022-12-13T14:09:39.453Z,99262.38
2022-12-13T14:13:16.292Z,99238.38
2022-12-13T14:16:55.589Z,99217.06
2022-12-13T14:20:45.660Z,99235.00
2022-12-13T14:24:04.637Z,99244.75
2022-12-13T14:27:21.170Z,99235.47
2022-12-13T14:30:29.205Z,99241.56
2022-12-13T14:33:33.470Z,99237.47
2022-12-13T14:36:39.396Z,99243.69
2022-12-13T14:39:46.628Z,99237.94
2022-12-13T14:42:55.076Z,99237.84
2022-12-13T14:46:00.978Z,99237.13
2022-12-13T14:49:07.728Z,99233.97
2022-12-13T14:52:27.000Z,99244.69
2022-12-13T14:55:33.956Z,99263.16
2022-12-13T14:58:38.489Z,99264.13
2022-12-13T15:01:43.457Z,99270.16
2022-12-13T15:04:48.557Z,99273.41
2022-12-13T15:07:54.238Z,99275.91
2022-12-13T15:11:03.085Z,99282.94
2022-12-13T15:14:16.691Z,99285.00
2022-12-13T15:17:28.316Z,99292.66
2022-12-13T15:20:35.330Z,99301.03
2022-12-13T15:23:48.882Z,99290.06
2022-12-13T15:26:59.202Z,99274.56
2022-12-13T15:30:03.238Z,99276.56
2022-12-13T15:33:09.863Z,99273.84
2022-12-13T15:36:18.532Z,99277.41
2022-12-13T15:39:25.697Z,99270.84
2022-12-13T15:42:33.556Z,99279.88
2022-12-13T15:45:37.819Z,99279.31
2022-12-13T15:48:48.895Z,99286.28
2022-12-13T15:51:57.655Z,99296.84
2022-12-13T15:55:28.667Z,99287.34
2022-12-13T15:58:35.675Z,99290.91
2022-12-13T16:01:39.617Z,99301.69
2022-12-13T16:04:43.776Z,99312.41
2022-12-13T16:07:56.315Z,99328.72
2022-12-13T16:11:02.475Z,99349.03
2022-12-13T16:14:29.574Z,99342.72
2022-12-13T16:17:34.835Z,99348.97
2022-12-13T16:20:38.868Z,99370.88
2022-12-13T16:23:48.918Z,99379.06
2022-12-13T16:26:54.616Z,99396.25
2022-12-13T16:29:58.510Z,99405.34
2022-12-13T16:33:18.842Z,99392.97
2022-12-13T16:36:26.276Z,99398.66
2022-12-13T16:39:30.271Z,99407.00
2022-12-13T16:42:35.710Z,99411.72
2022-12-13T16:45:43.110Z,99413.47
2022-12-13T16:48:47.156Z,99411.00
2022-12-13T16:51:50.977Z,99419.09
2022-12-13T16:54:54.917Z,99420.38
2022-12-13T16:58:02.254Z,99424.44
2022-12-13T17:01:11.324Z,99412.41
2022-12-13T17:04:20.642Z,99423.66
2022-12-13T17:07:25.276Z,99433.63
2022-12-13T17:10:29.897Z,99429.19
2022-12-13T17:13:35.098Z,99423.56
2022-12-13T17:16:39.093Z,99427.81
2022-12-13T17:19:43.112Z,99427.16
2022-12-13T17:22:47.675Z,99426.13
2022-12-13T17:25:58.047Z,99426.13
2022-12-13T17:29:04.853Z,99424.75
2022-12-13T17:32:08.750Z,99421.44
2022-12-13T17:35:17.879Z,99428.13
2022-12-13T17:38:22.204Z,99428.41
2022-12-13T17:41:26.358Z,99423.47
2022-12-13T17:44:31.923Z,99425.91
2022-12-13T17:47:35.857Z,99423.75
2022-12-13T17:50:39.917Z,99420.56
2022-12-13T17:53:45.533Z,99422.00
2022-12-13T17:56:49.376Z,99412.81
2022-12-13T17:59:54.689Z,99422.91
2022-12-13T18:02:58.866Z,99428.41
2022-12-13T18:06:02.596Z,99430.75
2022-12-13T18:09:06.736Z,99442.97
2022-12-13T18:12:10.716Z,99435.53
2022-12-13T18:15:16.090Z,99439.34
2022-12-13T18:18:20.759Z,99445.91
2022-12-13T18:21:28.137Z,99446.41
2022-12-13T18:24:32.204Z,99443.22
2022-12-13T18:27:36.353Z,99442.19
2022-12-13T18:30:41.744Z,99446.28
2022-12-13T18:33:47.836Z,99439.69
2022-12-13T18:36:52.004Z,99446.28
2022-12-13T18:39:55.979Z,99442.75
2022-12-13T18:42:59.849Z,99449.00
2022-12-13T18:46:06.101Z,99448.63
2022-12-13T18:49:12.132Z,99451.91
2022-12-13T18:52:15.910Z,99457.91
2022-12-13T18:55:19.769Z,99461.53
2022-12-13T18:58:23.610Z,99462.66
2022-12-13T19:01:29.035Z,99472.94
2022-12-13T19:04:35.143Z,99468.06
2022-12-13T19:07:39.296Z,99462.75
2022-12-13T19:10:46.495Z,99460.91
2022-12-13T19:13:50.996Z,99467.44
2022-12-13T19:16:56.397Z,99458.59
2022-12-13T19:20:02.358Z,99457.75
2022-12-13T19:23:06.115Z,99455.06
2022-12-13T19:26:11.255Z,99464.47
2022-12-13T19:29:16.116Z,99461.63
2022-12-13T19:32:21.883Z,99466.72
2022-12-13T19:35:26.315Z,99466.50
2022-12-13T19:38:30.250Z,99478.22
2022-12-13T19:41:34.269Z,99480.31
2022-12-13T19:44:38.070Z,99480.53
2022-12-13T19:47:43.329Z,99468.38
2022-12-13T19:50:52.730Z,99464.59
2022-12-13T19:53:56.672Z,99475.63
2022-12-13T19:57:06.871Z,99471.78
2022-12-13T20:00:13.149Z,99477.56
2022-12-13T20:03:19.022Z,99478.34
2022-12-13T20:06:24.476Z,99487.22
2022-12-13T20:09:29.909Z,99493.63
2022-12-13T20:12:38.960Z,99492.25
2022-12-13T20:15:48.646Z,99487.19
2022-12-13T20:18:57.856Z,99492.19
2022-12-13T20:22:01.596Z,99491.59
2022-12-13T20:25:07.338Z,99495.38
2022-12-13T20:28:16.226Z,99498.41
2022-12-13T20:31:21.777Z,99507.44
2022-12-13T20:34:27.156Z,99513.78
2022-12-13T20:37:31.595Z,99499.31
2022-12-13T20:40:35.549Z,99493.19
2022-12-13T20:43:39.698Z,99490.75
2022-12-13T20:46:43.581Z,99503.53
2022-12-13T20:49:49.200Z,99504.84
2022-12-13T20:52:53.630Z,99498.94
2022-12-13T20:55:58.569Z,99506.50
2022-12-13T20:59:03.091Z,99501.38
2022-12-13T21:02:06.980Z,99499.38
2022-12-13T21:05:17.569Z,99503.19
2022-12-13T21:08:41.898Z,99513.78
2022-12-13T21:11:47.818Z,99505.59
2022-12-13T21:14:51.589Z,99510.56
2022-12-13T21:17:57.796Z,99514.59
2022-12-13T21:21:03.129Z,99513.31
2022-12-13T21:24:07.829Z,99509.31
2022-12-13T21:27:11.610Z,99507.88
2022-12-13T21:30:15.937Z,99521.34
2022-12-13T21:33:19.816Z,99524.78
2022-12-13T21:36:26.809Z,99523.03
2022-12-13T21:39:31.215Z,99520.09
2022-12-13T21:42:34.996Z,99518.91
2022-12-13T21:45:38.952Z,99519.84
2022-12-13T21:48:44.157Z,99526.03
2022-12-13T21:51:49.401Z,99539.59
2022-12-13T21:55:15.312Z,99529.94
2022-12-13T21:58:34.529Z,99531.53
2022-12-13T22:01:55.690Z,99530.38
2022-12-13T22:05:00.555Z,99529.16
2022-12-13T22:08:06.677Z,99546.00
2022-12-13T22:11:21.369Z,99540.44
2022-12-13T22:14:27.691Z,99544.53
2022-12-13T22:17:35.804Z,99542.47
2022-12-13T22:20:40.092Z,99548.34
2022-12-13T22:23:45.516Z,99536.91
2022-12-13T22:26:49.271Z,99543.31
2022-12-13T22:29:53.756Z,99549.22
2022-12-13T22:32:57.709Z,99543.16
2022-12-13T22:36:02.810Z,99547.72
2022-12-13T22:39:08.335Z,99540.56
2022-12-13T22:42:12.597Z,99540.16
2022-12-13T22:45:16.595Z,99539.97
2022-12-13T22:48:20.416Z,99542.16
2022-12-13T22:51:24.290Z,99542.78
2022-12-13T22:54:29.658Z,99548.34
2022-12-13T22:57:33.417Z,99554.75
2022-12-13T23:00:37.267Z,99542.34
2022-12-13T23:03:42.717Z,99545.53
2022-12-13T23:06:46.766Z,99543.09
2022-12-13T23:09:52.155Z,99540.16
2022-12-13T23:13:03.814Z,99544.72
2022-12-13T23:16:08.448Z,99542.31
2022-12-13T23:19:41.053Z,99551.31
2022-12-13T23:22:38.609Z,99558.19
2022-12-13T23:25:43.876Z,99550.09
2022-12-13T23:28:55.171Z,99542.88
2022-12-13T23:31:58.917Z,99548.75
2022-12-13T23:35:02.895Z,99546.31
2022-12-13T23:38:06.715Z,99547.81
2022-12-13T23:41:14.335Z,99572.44
2022-12-13T23:44:18.210Z,99566.44
2022-12-13T23:47:22.096Z,99576.78
2022-12-13T23:50:26.033Z,99575.53
2022-12-13T23:53:30.197Z,99578.53
2022-12-13T23:56:36.392Z,99576.75
2022-12-13T23:59:40.916Z,99586.59
